CheckWX is a tool to help pilots better visualize weather data.  It is not intended as a substitute for an official pre-flight weather briefing.

21:52:48 UTC

KFEP METAR
Albertus Airport
Freeport, Illinois, USA
Current

18 mins ago

KFEP 232135Z AUTO 27009G16KT 10SM CLR 22/11 A3007 RMK AO2 T02170107
Observed
May-23 @ 21:35 UTC
Wind
  • 270° at 9 KTS
  • Gusting to 16 KTS
Visibility
10 SM
Flight Rules
VFR
Cloud Levels
  • Clear skies
Temperature
22°C / 72°F
Dewpoint
11°C / 52°F
Humidity
50%
Altimeter
30.07" Hg
Pressure
1018.32 hPa
Previous

38 mins ago

KFEP 232115Z AUTO 26012G15KT 10SM CLR 22/11 A3007 RMK AO2 T02180111
Observed
May-23 @ 21:15 UTC
Wind
  • 260° at 12 KTS
  • Gusting to 15 KTS
Visibility
10 SM
Flight Rules
VFR
Cloud Levels
  • Clear skies
Temperature
22°C / 72°F
Dewpoint
11°C / 52°F
Humidity
50%
Altimeter
30.07" Hg
Pressure
1018.32 hPa
Previous

58 mins ago

KFEP 232055Z AUTO 28013G17KT 10SM CLR 22/11 A3007 RMK AO2 T02150111
Observed
May-23 @ 20:55 UTC
Wind
  • 280° at 13 KTS
  • Gusting to 17 KTS
Visibility
10 SM
Flight Rules
VFR
Cloud Levels
  • Clear skies
Temperature
22°C / 72°F
Dewpoint
11°C / 52°F
Humidity
50%
Altimeter
30.07" Hg
Pressure
1018.32 hPa